createdAt,value
2018-07-06T00:01:05.733Z,17.40
2018-07-06T00:03:45.320Z,17.40
2018-07-06T00:06:24.960Z,17.40
2018-07-06T00:09:04.726Z,17.40
2018-07-06T00:11:44.412Z,17.40
2018-07-06T00:14:23.847Z,17.40
2018-07-06T00:17:03.485Z,17.40
2018-07-06T00:19:43.038Z,17.40
2018-07-06T00:22:22.668Z,17.40
2018-07-06T00:25:02.350Z,17.40
2018-07-06T00:27:41.939Z,17.40
2018-07-06T00:30:21.687Z,17.40
2018-07-06T00:33:01.351Z,17.40
2018-07-06T00:38:14.601Z,17.30
2018-07-06T00:40:54.232Z,17.30
2018-07-06T00:43:33.906Z,17.30
2018-07-06T00:46:13.376Z,17.30
2018-07-06T00:48:53.029Z,17.30
2018-07-06T00:51:32.524Z,17.30
2018-07-06T00:54:12.014Z,17.30
2018-07-06T00:56:51.478Z,17.30
2018-07-06T00:59:31.346Z,17.30
2018-07-06T01:02:10.784Z,17.30
2018-07-06T01:04:50.404Z,17.30
2018-07-06T01:07:29.958Z,17.30
2018-07-06T01:10:09.572Z,17.30
2018-07-06T01:12:54.698Z,17.30
2018-07-06T01:15:34.532Z,17.20
2018-07-06T01:18:14.557Z,17.20
2018-07-06T01:20:54.191Z,17.20
2018-07-06T01:23:33.860Z,17.20
2018-07-06T01:26:13.645Z,17.20
2018-07-06T01:28:53.203Z,17.20
2018-07-06T01:31:32.910Z,17.20
2018-07-06T01:34:12.490Z,17.20
2018-07-06T01:36:52.209Z,17.20
2018-07-06T01:39:32.062Z,17.20
2018-07-06T01:42:12.118Z,17.20
2018-07-06T01:44:52.194Z,17.20
2018-07-06T01:47:31.827Z,17.20
2018-07-06T01:50:11.454Z,17.20
2018-07-06T01:52:51.144Z,17.20
2018-07-06T01:55:30.803Z,17.20
2018-07-06T01:58:10.355Z,17.20
2018-07-06T02:00:49.902Z,17.10
2018-07-06T02:03:29.477Z,17.10
2018-07-06T02:06:09.078Z,17.10
2018-07-06T02:08:48.734Z,17.20
2018-07-06T02:11:28.266Z,17.20
2018-07-06T02:14:07.879Z,17.10
2018-07-06T02:16:47.553Z,17.10
2018-07-06T02:19:27.179Z,17.20
2018-07-06T02:22:06.628Z,17.20
2018-07-06T02:24:46.174Z,17.20
2018-07-06T02:27:25.812Z,17.20
2018-07-06T02:30:05.436Z,17.20
2018-07-06T02:32:45.100Z,17.20
2018-07-06T02:35:24.767Z,17.20
2018-07-06T02:38:04.455Z,17.10
2018-07-06T02:40:44.154Z,17.20
2018-07-06T02:43:23.771Z,17.10
2018-07-06T02:46:03.510Z,17.10
2018-07-06T02:48:43.179Z,17.10
2018-07-06T02:51:22.763Z,17.10
2018-07-06T02:54:02.476Z,17.10
2018-07-06T02:59:15.685Z,17.10
2018-07-06T03:01:55.448Z,17.10
2018-07-06T03:07:08.693Z,17.00
2018-07-06T03:09:48.309Z,17.00
2018-07-06T03:12:27.923Z,17.00
2018-07-06T03:15:07.520Z,17.00
2018-07-06T03:17:47.164Z,17.00
2018-07-06T03:20:26.662Z,17.00
2018-07-06T03:23:06.259Z,17.00
2018-07-06T03:25:45.868Z,16.90
2018-07-06T03:28:25.450Z,16.90
2018-07-06T03:31:05.137Z,16.90
2018-07-06T03:33:44.772Z,16.90
2018-07-06T03:36:24.501Z,16.90
2018-07-06T03:39:04.714Z,16.90
2018-07-06T03:41:44.302Z,16.90
2018-07-06T03:44:23.938Z,16.90
2018-07-06T03:47:03.543Z,16.90
2018-07-06T03:49:43.123Z,16.90
2018-07-06T03:52:22.674Z,16.90
2018-07-06T03:55:02.377Z,16.90
2018-07-06T03:57:41.901Z,16.90
2018-07-06T04:00:21.625Z,16.90
2018-07-06T04:03:01.266Z,16.90
2018-07-06T04:05:40.989Z,16.90
2018-07-06T04:08:20.636Z,16.90
2018-07-06T04:11:00.193Z,17.00
2018-07-06T04:13:39.827Z,17.00
2018-07-06T04:16:19.491Z,17.00
2018-07-06T04:19:06.187Z,17.00
2018-07-06T04:21:45.743Z,17.00
2018-07-06T04:24:25.431Z,17.00
2018-07-06T04:27:05.125Z,17.10
2018-07-06T04:29:44.696Z,17.10
2018-07-06T04:32:24.450Z,17.10
2018-07-06T04:35:04.210Z,17.10
2018-07-06T04:37:43.901Z,17.10
2018-07-06T04:40:23.956Z,17.10
2018-07-06T04:43:04.086Z,17.10
2018-07-06T04:45:43.794Z,17.20
2018-07-06T04:48:23.376Z,17.20
2018-07-06T04:51:03.026Z,17.20
2018-07-06T04:53:42.551Z,17.20
2018-07-06T04:56:22.008Z,17.20
2018-07-06T04:59:01.682Z,17.20
2018-07-06T05:01:41.298Z,17.20
2018-07-06T05:04:20.796Z,17.30
2018-07-06T05:07:00.447Z,17.20
2018-07-06T05:09:39.986Z,17.20
2018-07-06T05:12:19.582Z,17.30
2018-07-06T05:14:59.007Z,17.30
2018-07-06T05:17:38.565Z,17.40
2018-07-06T05:20:18.134Z,17.40
2018-07-06T05:22:57.812Z,17.50
2018-07-06T05:25:37.422Z,17.50
2018-07-06T05:28:16.968Z,17.60
2018-07-06T05:30:56.551Z,17.70
2018-07-06T05:33:36.218Z,17.80
2018-07-06T05:36:15.919Z,17.90
2018-07-06T05:38:55.516Z,18.00
2018-07-06T05:41:34.980Z,18.20
2018-07-06T05:44:14.587Z,18.20
2018-07-06T05:46:54.046Z,18.20
2018-07-06T05:49:33.579Z,18.20
2018-07-06T05:52:13.209Z,18.10
2018-07-06T05:54:52.706Z,18.00
2018-07-06T05:57:32.323Z,18.10
2018-07-06T06:00:11.968Z,18.00
2018-07-06T06:02:51.663Z,18.00
2018-07-06T06:05:31.260Z,18.00
2018-07-06T06:07:58.522Z,17.90
2018-07-06T06:10:26.831Z,17.90
2018-07-06T06:12:55.023Z,17.90
2018-07-06T06:15:23.238Z,17.80
2018-07-06T06:17:51.429Z,17.80
2018-07-06T06:20:19.661Z,17.70
2018-07-06T06:22:47.905Z,17.80
2018-07-06T06:25:16.111Z,17.80
2018-07-06T06:27:44.347Z,17.80
2018-07-06T06:30:12.532Z,18.00
2018-07-06T06:32:40.784Z,18.10
2018-07-06T06:35:08.957Z,18.20
2018-07-06T06:37:37.174Z,18.20
2018-07-06T06:40:05.401Z,18.20
2018-07-06T06:42:33.616Z,18.20
2018-07-06T06:45:01.809Z,18.20
2018-07-06T06:47:30.017Z,18.30
2018-07-06T06:49:58.278Z,18.40
2018-07-06T06:52:26.521Z,18.50
2018-07-06T06:54:54.754Z,18.60
2018-07-06T06:57:22.978Z,18.70
2018-07-06T06:59:51.215Z,18.90
2018-07-06T07:02:19.419Z,19.10
2018-07-06T07:04:47.676Z,19.40
2018-07-06T07:07:15.981Z,20.00
2018-07-06T07:09:44.144Z,20.30
2018-07-06T07:12:12.391Z,20.80
2018-07-06T07:14:40.634Z,21.00
2018-07-06T07:17:08.880Z,20.90
2018-07-06T07:19:37.084Z,21.00
2018-07-06T07:22:05.859Z,21.00
2018-07-06T07:24:34.079Z,21.60
2018-07-06T07:27:02.341Z,21.80
2018-07-06T07:29:30.894Z,22.00
2018-07-06T07:31:59.234Z,22.60
2018-07-06T07:34:27.484Z,22.90
2018-07-06T07:36:55.686Z,22.90
2018-07-06T07:39:24.028Z,23.30
2018-07-06T07:41:52.783Z,23.40
2018-07-06T07:44:21.000Z,23.20
2018-07-06T07:46:49.199Z,22.80
2018-07-06T07:49:17.437Z,22.50
2018-07-06T07:51:59.234Z,22.30
2018-07-06T07:54:29.705Z,22.50
2018-07-06T07:56:59.114Z,22.80
2018-07-06T07:59:28.840Z,23.10
2018-07-06T08:01:57.575Z,23.70
2018-07-06T08:04:25.879Z,24.20
2018-07-06T08:06:54.131Z,24.50
2018-07-06T08:09:22.941Z,24.60
2018-07-06T08:11:52.879Z,24.70
2018-07-06T08:14:22.001Z,25.20
2018-07-06T08:16:50.232Z,25.10
2018-07-06T08:19:18.665Z,24.80
2018-07-06T08:21:47.360Z,24.70
2018-07-06T08:24:15.729Z,24.60
2018-07-06T08:26:43.967Z,24.50
2018-07-06T08:29:12.178Z,24.10
2018-07-06T08:31:41.572Z,24.10
2018-07-06T08:34:20.877Z,24.40
2018-07-06T08:38:04.937Z,24.40
2018-07-06T08:40:33.226Z,24.50
2018-07-06T08:43:02.693Z,24.70
2018-07-06T08:45:31.738Z,24.90
2018-07-06T08:47:59.936Z,24.80
2018-07-06T08:50:28.291Z,24.40
2018-07-06T08:52:56.933Z,24.40
2018-07-06T08:55:25.331Z,24.20
2018-07-06T08:57:55.123Z,24.20
2018-07-06T09:02:51.363Z,24.50
2018-07-06T09:05:19.596Z,24.90
2018-07-06T09:07:47.868Z,24.80
2018-07-06T09:10:16.148Z,25.00
2018-07-06T09:12:44.397Z,25.20
2018-07-06T09:15:12.698Z,25.30
2018-07-06T09:17:40.951Z,25.30
2018-07-06T09:20:09.295Z,24.70
2018-07-06T09:22:37.420Z,24.20
2018-07-06T09:25:06.674Z,24.10
2018-07-06T09:30:02.965Z,23.50
2018-07-06T09:32:31.188Z,23.80
2018-07-06T09:34:59.400Z,24.00
2018-07-06T09:37:27.619Z,23.90
2018-07-06T09:39:55.865Z,23.60
2018-07-06T09:42:24.054Z,23.60
2018-07-06T09:44:52.287Z,23.60
2018-07-06T09:47:20.499Z,23.90
2018-07-06T09:49:48.731Z,24.10
2018-07-06T09:52:16.971Z,24.50
2018-07-06T09:54:45.182Z,24.90
2018-07-06T09:57:13.391Z,25.00
2018-07-06T09:59:41.565Z,25.40
2018-07-06T10:02:09.772Z,25.70
2018-07-06T10:04:38.010Z,26.00
2018-07-06T10:07:06.200Z,25.90
2018-07-06T10:09:34.466Z,25.80
2018-07-06T10:12:02.627Z,25.60
2018-07-06T10:14:30.770Z,25.20
2018-07-06T10:16:58.914Z,24.70
2018-07-06T10:19:27.134Z,24.40
2018-07-06T10:21:55.359Z,24.30
2018-07-06T10:24:23.508Z,24.40
2018-07-06T10:26:51.789Z,25.00
2018-07-06T10:30:00.619Z,25.40
2018-07-06T10:32:29.609Z,25.10
2018-07-06T10:34:58.723Z,25.20
2018-07-06T10:37:27.324Z,25.30
2018-07-06T10:39:55.719Z,25.60
2018-07-06T10:42:23.756Z,25.40
2018-07-06T10:44:52.047Z,25.40
2018-07-06T10:47:20.182Z,25.00
2018-07-06T10:49:48.330Z,25.00
2018-07-06T10:52:16.956Z,24.90
2018-07-06T10:54:45.686Z,24.80
2018-07-06T10:57:13.938Z,24.60
2018-07-06T10:59:42.154Z,24.50
2018-07-06T11:02:10.300Z,24.90
2018-07-06T11:04:38.474Z,25.00
2018-07-06T11:07:06.692Z,25.30
2018-07-06T11:09:34.874Z,25.20
2018-07-06T11:12:03.051Z,25.20
2018-07-06T11:14:31.222Z,25.20
2018-07-06T11:16:59.455Z,25.20
2018-07-06T11:19:27.670Z,25.20
2018-07-06T11:21:55.844Z,25.20
2018-07-06T11:24:23.995Z,25.00
2018-07-06T11:26:52.195Z,24.90
2018-07-06T11:29:20.351Z,25.10
2018-07-06T11:31:48.570Z,25.20
2018-07-06T11:34:16.786Z,25.30
2018-07-06T11:36:44.955Z,25.40
2018-07-06T11:39:13.110Z,25.40
2018-07-06T11:41:41.243Z,25.20
2018-07-06T11:44:09.401Z,25.10
2018-07-06T11:46:37.580Z,24.80
2018-07-06T11:49:05.722Z,24.70
2018-07-06T11:51:33.884Z,24.80
2018-07-06T11:54:02.083Z,24.90
2018-07-06T11:56:30.255Z,25.20
2018-07-06T11:58:58.514Z,25.30
2018-07-06T12:01:26.717Z,25.40
2018-07-06T12:03:54.919Z,25.50
2018-07-06T12:06:23.042Z,25.60
2018-07-06T12:08:51.196Z,25.70
2018-07-06T12:11:19.389Z,25.80
2018-07-06T12:13:47.588Z,25.80
2018-07-06T12:16:15.834Z,25.90
2018-07-06T12:18:44.048Z,25.90
2018-07-06T12:21:12.297Z,25.90
2018-07-06T12:23:40.979Z,25.70
2018-07-06T12:26:09.151Z,25.70
2018-07-06T12:28:37.341Z,25.60
2018-07-06T12:31:05.534Z,25.60
2018-07-06T12:33:33.775Z,25.70
2018-07-06T12:36:02.063Z,25.60
2018-07-06T12:38:30.411Z,25.50
2018-07-06T12:40:58.603Z,25.40
2018-07-06T12:43:26.861Z,25.10
2018-07-06T12:45:55.052Z,24.80
2018-07-06T12:48:23.268Z,24.70
2018-07-06T12:50:51.452Z,24.70
2018-07-06T12:53:19.676Z,24.80
2018-07-06T12:55:47.853Z,25.10
2018-07-06T12:58:16.181Z,25.40
2018-07-06T13:00:44.307Z,25.70
2018-07-06T13:03:12.511Z,26.10
2018-07-06T13:05:40.709Z,26.30
2018-07-06T13:08:08.918Z,26.30
2018-07-06T13:10:37.082Z,26.20
2018-07-06T13:13:05.264Z,26.00
2018-07-06T13:15:33.418Z,25.90
2018-07-06T13:18:01.620Z,25.90
2018-07-06T13:20:29.823Z,25.70
2018-07-06T13:22:58.008Z,25.50
2018-07-06T13:25:26.197Z,25.40
2018-07-06T13:27:54.435Z,25.50
2018-07-06T13:30:22.567Z,25.80
2018-07-06T13:32:50.746Z,26.00
2018-07-06T13:35:18.915Z,26.10
2018-07-06T13:37:47.081Z,26.30
2018-07-06T13:40:15.238Z,26.40
2018-07-06T13:42:43.396Z,26.40
2018-07-06T13:45:11.593Z,26.50
2018-07-06T13:47:39.800Z,26.50
2018-07-06T13:50:08.015Z,26.60
2018-07-06T13:52:36.211Z,26.70
2018-07-06T13:55:04.432Z,26.70
2018-07-06T13:57:32.580Z,26.70
2018-07-06T14:00:00.787Z,26.60
2018-07-06T14:02:28.963Z,26.40
2018-07-06T14:04:57.164Z,26.30
2018-07-06T14:07:25.292Z,26.10
2018-07-06T14:09:53.551Z,25.90
2018-07-06T14:12:21.766Z,25.90
2018-07-06T14:14:49.982Z,26.00
2018-07-06T14:17:18.182Z,25.90
2018-07-06T14:19:46.387Z,26.00
2018-07-06T14:24:42.530Z,26.00
2018-07-06T14:29:39.498Z,26.10
2018-07-06T14:32:07.754Z,26.40
2018-07-06T14:34:35.998Z,26.60
2018-07-06T14:37:04.212Z,26.60
2018-07-06T14:39:32.393Z,26.30
2018-07-06T14:42:00.586Z,26.20
2018-07-06T14:44:28.855Z,26.00
2018-07-06T14:46:57.107Z,25.80
2018-07-06T14:49:26.452Z,25.50
2018-07-06T14:51:54.698Z,25.50
2018-07-06T14:54:22.890Z,25.70
2018-07-06T14:56:51.074Z,25.90
2018-07-06T14:59:19.280Z,25.90
2018-07-06T15:01:47.454Z,26.10
2018-07-06T15:04:15.726Z,26.30
2018-07-06T15:06:43.960Z,26.30
2018-07-06T15:09:12.238Z,26.20
2018-07-06T15:11:40.414Z,26.20
2018-07-06T15:14:08.609Z,26.10
2018-07-06T15:16:36.805Z,26.00
2018-07-06T15:19:05.366Z,26.10
2018-07-06T15:21:33.548Z,26.20
2018-07-06T15:24:01.926Z,26.10
2018-07-06T15:26:30.161Z,26.10
2018-07-06T15:28:58.435Z,26.10
2018-07-06T15:31:26.695Z,26.10
2018-07-06T15:33:54.872Z,26.10
2018-07-06T15:36:23.062Z,26.30
2018-07-06T15:38:51.296Z,26.50
2018-07-06T15:41:19.487Z,26.70
2018-07-06T15:43:47.719Z,26.80
2018-07-06T15:46:15.942Z,26.70
2018-07-06T15:48:44.135Z,26.60
2018-07-06T15:51:12.413Z,26.20
2018-07-06T15:53:40.610Z,25.30
2018-07-06T15:56:08.786Z,24.30
2018-07-06T15:58:37.007Z,23.50
2018-07-06T16:01:05.274Z,23.20
2018-07-06T16:03:33.481Z,23.20
2018-07-06T16:06:01.745Z,23.30
2018-07-06T16:08:29.933Z,23.50
2018-07-06T16:10:58.136Z,23.60
2018-07-06T16:13:26.366Z,23.70
2018-07-06T16:15:54.698Z,23.60
2018-07-06T16:18:22.939Z,23.70
2018-07-06T16:20:51.305Z,23.70
2018-07-06T16:23:19.435Z,23.80
2018-07-06T16:25:47.628Z,24.00
2018-07-06T16:28:15.851Z,24.00
2018-07-06T16:30:44.134Z,24.10
2018-07-06T16:33:12.315Z,24.00
2018-07-06T16:35:40.532Z,24.00
2018-07-06T16:38:08.935Z,24.20
2018-07-06T16:40:37.160Z,24.30
2018-07-06T16:43:05.400Z,24.50
2018-07-06T16:45:33.884Z,24.80
2018-07-06T16:48:02.336Z,24.80
2018-07-06T16:50:30.601Z,24.90
2018-07-06T16:52:59.009Z,24.80
2018-07-06T16:55:27.227Z,24.70
2018-07-06T16:57:55.439Z,24.60
2018-07-06T17:00:23.842Z,24.50
2018-07-06T17:02:52.157Z,24.40
2018-07-06T17:05:20.649Z,24.20
2018-07-06T17:07:48.963Z,24.20
2018-07-06T17:10:17.465Z,24.10
2018-07-06T17:12:45.657Z,24.10
2018-07-06T17:17:41.922Z,24.20
2018-07-06T17:20:10.140Z,24.30
2018-07-06T17:22:38.304Z,24.70
2018-07-06T17:25:06.687Z,25.20
2018-07-06T17:27:34.885Z,25.50
2018-07-06T17:30:03.086Z,26.20
2018-07-06T17:32:31.247Z,26.40
2018-07-06T17:34:59.478Z,26.60
2018-07-06T17:37:27.673Z,27.20
2018-07-06T17:39:55.851Z,27.70
2018-07-06T17:42:24.044Z,27.30
2018-07-06T17:44:52.215Z,26.70
2018-07-06T17:47:20.695Z,26.20
2018-07-06T17:49:48.879Z,25.70
2018-07-06T17:52:17.038Z,25.70
2018-07-06T17:54:45.283Z,25.70
2018-07-06T17:57:13.448Z,25.90
2018-07-06T17:59:41.607Z,25.70
2018-07-06T18:02:09.854Z,25.70
2018-07-06T18:04:37.991Z,25.40
2018-07-06T18:07:06.221Z,25.50
2018-07-06T18:12:08.215Z,25.50
2018-07-06T18:14:36.442Z,25.60
2018-07-06T18:17:04.728Z,25.50
2018-07-06T18:19:33.039Z,25.40
2018-07-06T18:22:01.241Z,25.50
2018-07-06T18:24:29.402Z,25.40
2018-07-06T18:26:57.549Z,25.30
2018-07-06T18:29:25.839Z,25.30
2018-07-06T18:31:54.005Z,25.10
2018-07-06T18:34:22.157Z,25.00
2018-07-06T18:36:50.333Z,24.90
2018-07-06T18:39:18.480Z,24.90
2018-07-06T18:41:46.653Z,24.70
2018-07-06T18:44:14.818Z,24.60
2018-07-06T18:46:42.991Z,24.50
2018-07-06T18:49:11.398Z,24.40
2018-07-06T18:51:39.584Z,24.30
2018-07-06T18:54:07.832Z,24.10
2018-07-06T18:56:36.118Z,24.10
2018-07-06T18:59:04.257Z,24.00
2018-07-06T19:01:32.432Z,23.90
2018-07-06T19:04:00.603Z,23.70
2018-07-06T19:06:28.798Z,23.60
2018-07-06T19:08:56.972Z,23.40
2018-07-06T19:11:25.192Z,23.30
2018-07-06T19:13:53.437Z,23.20
2018-07-06T19:16:21.699Z,23.10
2018-07-06T19:18:49.924Z,23.00
2018-07-06T19:21:18.179Z,22.90
2018-07-06T19:23:46.427Z,22.80
2018-07-06T19:26:14.641Z,22.70
2018-07-06T19:28:42.862Z,22.60
2018-07-06T19:31:11.091Z,22.50
2018-07-06T19:33:39.360Z,22.40
2018-07-06T19:36:07.557Z,22.30
2018-07-06T19:38:35.763Z,22.20
2018-07-06T19:41:03.995Z,22.20
2018-07-06T19:43:32.251Z,22.20
2018-07-06T19:46:00.497Z,22.10
2018-07-06T19:48:28.733Z,22.00
2018-07-06T19:50:56.961Z,21.90
2018-07-06T19:53:25.110Z,21.90
2018-07-06T19:55:53.337Z,21.80
2018-07-06T19:58:21.539Z,21.70
2018-07-06T20:00:49.738Z,21.60
2018-07-06T20:03:17.947Z,21.50
2018-07-06T20:05:46.175Z,21.50
2018-07-06T20:08:14.378Z,21.40
2018-07-06T20:10:42.643Z,21.30
2018-07-06T20:13:10.846Z,21.20
2018-07-06T20:15:39.017Z,21.00
2018-07-06T20:18:07.232Z,20.80
2018-07-06T20:20:35.463Z,20.70
2018-07-06T20:23:03.650Z,20.50
2018-07-06T20:25:31.815Z,20.40
2018-07-06T20:28:00.014Z,20.40
2018-07-06T20:30:28.209Z,20.20
2018-07-06T20:32:56.443Z,20.10
2018-07-06T20:35:24.607Z,19.90
2018-07-06T20:37:53.091Z,19.80
2018-07-06T20:40:21.352Z,19.70
2018-07-06T20:42:49.568Z,19.60
2018-07-06T20:45:17.726Z,19.50
2018-07-06T20:47:45.891Z,19.30
2018-07-06T20:50:14.101Z,19.20
2018-07-06T20:52:42.311Z,19.10
2018-07-06T20:55:10.496Z,19.00
2018-07-06T20:57:38.690Z,18.90
2018-07-06T21:00:06.940Z,18.80
2018-07-06T21:02:35.143Z,18.60
2018-07-06T21:05:03.372Z,18.60
2018-07-06T21:07:31.592Z,18.50
2018-07-06T21:09:59.843Z,18.40
2018-07-06T21:12:27.995Z,18.30
2018-07-06T21:14:56.241Z,18.20
2018-07-06T21:17:24.468Z,18.10
2018-07-06T21:19:52.696Z,18.00
2018-07-06T21:22:20.956Z,18.00
2018-07-06T21:24:49.183Z,17.90
2018-07-06T21:27:17.412Z,17.90
2018-07-06T21:29:45.636Z,17.80
2018-07-06T21:32:14.054Z,17.80
2018-07-06T21:34:42.295Z,17.70
2018-07-06T21:37:10.571Z,17.70
2018-07-06T21:39:38.794Z,17.60
2018-07-06T21:42:07.061Z,17.50
2018-07-06T21:44:35.303Z,17.50
2018-07-06T21:47:03.564Z,17.40
2018-07-06T21:49:31.772Z,17.40
2018-07-06T21:52:00.072Z,17.30
2018-07-06T21:54:28.310Z,17.20
2018-07-06T21:56:56.620Z,17.10
2018-07-06T21:59:24.869Z,17.10
2018-07-06T22:01:53.703Z,17.00
2018-07-06T22:04:21.934Z,17.00
2018-07-06T22:06:51.279Z,16.90
2018-07-06T22:09:19.540Z,16.90
2018-07-06T22:11:47.830Z,16.80
2018-07-06T22:14:16.039Z,16.80
2018-07-06T22:16:44.215Z,16.70
2018-07-06T22:19:12.385Z,16.60
2018-07-06T22:21:40.592Z,16.60
2018-07-06T22:24:08.844Z,16.50
2018-07-06T22:26:37.027Z,16.40
2018-07-06T22:29:05.523Z,16.30
2018-07-06T22:31:33.809Z,16.30
2018-07-06T22:34:02.066Z,16.20
2018-07-06T22:36:30.247Z,16.10
2018-07-06T22:38:58.511Z,16.10
2018-07-06T22:41:26.694Z,16.10
2018-07-06T22:43:54.902Z,16.10
2018-07-06T22:46:23.066Z,16.00
2018-07-06T22:48:51.260Z,16.00
2018-07-06T22:51:19.516Z,16.00
2018-07-06T22:53:47.740Z,15.90
2018-07-06T22:56:16.085Z,15.90
2018-07-06T22:58:44.321Z,15.80
2018-07-06T23:01:13.568Z,15.80
2018-07-06T23:03:41.791Z,15.80
2018-07-06T23:06:11.197Z,15.80
2018-07-06T23:08:39.531Z,15.80
2018-07-06T23:11:08.335Z,15.70
2018-07-06T23:13:36.701Z,15.70
2018-07-06T23:16:07.768Z,15.70
2018-07-06T23:18:36.057Z,15.70
2018-07-06T23:21:06.383Z,15.60
2018-07-06T23:23:34.667Z,15.60
2018-07-06T23:26:05.071Z,15.50
2018-07-06T23:28:33.448Z,15.50
2018-07-06T23:31:02.792Z,15.40
2018-07-06T23:33:31.062Z,15.40
2018-07-06T23:36:00.364Z,15.30
2018-07-06T23:38:28.631Z,15.30
2018-07-06T23:40:58.861Z,15.30
2018-07-06T23:43:28.120Z,15.30
2018-07-06T23:45:57.743Z,15.30
2018-07-06T23:48:26.027Z,15.20
2018-07-06T23:50:54.362Z,15.20
2018-07-06T23:53:22.649Z,15.10
2018-07-06T23:55:52.261Z,15.10
2018-07-06T23:58:20.579Z,15.10
